createdAt,value
2023-03-07T00:00:38.644Z,51.4
2023-03-07T00:05:39.103Z,53.7
2023-03-07T00:10:39.653Z,53.5
2023-03-07T00:15:40.127Z,58.8
2023-03-07T00:20:40.626Z,59.8
2023-03-07T00:25:41.328Z,60
2023-03-07T00:30:41.977Z,59
2023-03-07T00:35:42.442Z,60.9
2023-03-07T00:40:42.923Z,62.4
2023-03-07T00:45:43.499Z,59.7
2023-03-07T00:50:43.966Z,58.4
2023-03-07T00:55:44.551Z,56
2023-03-07T01:00:45.271Z,48.2
2023-03-07T01:05:45.749Z,42.6
2023-03-07T01:10:46.270Z,41.2
2023-03-07T01:15:46.669Z,39.9
2023-03-07T01:20:47.178Z,42.8
2023-03-07T01:25:47.677Z,46.8
2023-03-07T01:30:48.117Z,44.8
2023-03-07T01:35:48.599Z,50.4
2023-03-07T01:40:49.761Z,51.2
2023-03-07T01:45:50.420Z,55.3
2023-03-07T01:50:51.027Z,52.2
2023-03-07T01:55:51.706Z,53.5
2023-03-07T02:00:52.299Z,53.3
2023-03-07T02:05:52.790Z,54.6
2023-03-07T02:10:53.575Z,58.3
2023-03-07T02:15:53.970Z,55.8
2023-03-07T02:20:54.754Z,62.6
2023-03-07T02:25:55.348Z,57.3
2023-03-07T02:30:55.831Z,56.3
2023-03-07T02:35:56.441Z,57.5
2023-03-07T02:40:57.172Z,61.1
2023-03-07T02:45:57.753Z,58.8
2023-03-07T02:50:58.513Z,66.4
2023-03-07T02:55:59.056Z,56.8
2023-03-07T03:01:01.898Z,63.2
2023-03-07T03:11:03.156Z,59.5
2023-03-07T03:16:06.738Z,61
2023-03-07T03:21:07.404Z,57.6
2023-03-07T03:26:07.824Z,60
2023-03-07T03:31:08.311Z,66.2
2023-03-07T03:36:09.107Z,66.6
2023-03-07T03:41:09.682Z,70.1
2023-03-07T03:46:10.224Z,72.2
2023-03-07T03:51:11.092Z,78.2
2023-03-07T03:56:11.648Z,75.5
2023-03-07T04:01:12.092Z,150.4
2023-03-07T04:06:12.592Z,83.1
2023-03-07T04:11:13.223Z,76.5
2023-03-07T04:16:13.702Z,76
2023-03-07T04:21:14.260Z,72.8
2023-03-07T04:26:15.109Z,76.8
2023-03-07T04:31:15.624Z,76.6
2023-03-07T04:36:16.092Z,75.4
2023-03-07T04:41:16.648Z,75.2
2023-03-07T04:46:17.281Z,72.7
2023-03-07T04:51:17.844Z,72.6
2023-03-07T04:56:18.402Z,74.9
2023-03-07T05:01:19.045Z,67.8
2023-03-07T05:06:19.830Z,72.5
2023-03-07T05:11:20.610Z,72.1
2023-03-07T05:16:24.513Z,69.1
2023-03-07T05:21:25.177Z,73.4
2023-03-07T05:26:28.059Z,72.4
2023-03-07T05:31:28.672Z,69.9
2023-03-07T05:36:29.280Z,69.6
2023-03-07T05:41:30.169Z,68.4
2023-03-07T05:46:30.755Z,126.4
2023-03-07T05:51:31.378Z,90.6
2023-03-07T05:56:33.190Z,102.3
2023-03-07T06:01:33.734Z,63.9
2023-03-07T06:06:34.652Z,65.8
2023-03-07T06:11:35.901Z,61.9
2023-03-07T06:16:36.358Z,62.7
2023-03-07T06:21:36.785Z,65.1
2023-03-07T06:26:37.872Z,65.3
2023-03-07T06:31:38.384Z,66.2
2023-03-07T06:36:39.001Z,66
2023-03-07T06:41:39.561Z,74.6
2023-03-07T06:46:40.318Z,66
2023-03-07T06:51:40.770Z,64.5
2023-03-07T06:56:42.668Z,137.6
2023-03-07T07:01:46.122Z,65
2023-03-07T07:06:46.905Z,66.7
2023-03-07T07:11:47.561Z,65
2023-03-07T07:16:48.012Z,61.1
2023-03-07T07:21:48.741Z,60.1
2023-03-07T07:26:49.289Z,52.3
2023-03-07T07:31:49.942Z,52.9
2023-03-07T07:36:50.727Z,102.9
2023-03-07T07:41:51.268Z,45.6
2023-03-07T07:46:51.994Z,46.8
2023-03-07T07:51:52.383Z,41
2023-03-07T07:56:53.001Z,40.6
2023-03-07T08:01:53.546Z,39.1
2023-03-07T08:06:54.151Z,40.2
2023-03-07T08:16:55.326Z,40.1
2023-03-07T08:21:55.808Z,36.2
2023-03-07T08:31:56.929Z,38.6
2023-03-07T08:36:57.456Z,33.3
2023-03-07T08:41:58.160Z,34.4
2023-03-07T08:46:58.691Z,32.4
2023-03-07T08:52:00.139Z,33.8
2023-03-07T08:57:01.058Z,45.3
2023-03-07T09:02:01.594Z,32.1
2023-03-07T09:07:02.181Z,33.5
2023-03-07T09:12:02.946Z,29.2
2023-03-07T09:17:03.509Z,30
2023-03-07T09:22:04.066Z,30.9
2023-03-07T09:27:05.521Z,31
2023-03-07T09:32:06.003Z,36.6
2023-03-07T09:37:06.563Z,32.2
2023-03-07T09:42:07.487Z,28.7
2023-03-07T09:47:08.241Z,30.1
2023-03-07T09:52:10.261Z,34.7
2023-03-07T09:57:10.791Z,28.6
2023-03-07T10:02:11.249Z,29
2023-03-07T10:07:11.662Z,28
2023-03-07T10:12:12.171Z,32.5
2023-03-07T10:17:12.534Z,26.9
2023-03-07T10:22:13.368Z,28.6
2023-03-07T10:27:13.902Z,28
2023-03-07T10:32:16.606Z,28.1
2023-03-07T10:37:17.359Z,25.2
2023-03-07T10:42:17.923Z,24.6
2023-03-07T10:47:18.560Z,26.1
2023-03-07T10:52:19.124Z,26.9
2023-03-07T10:57:19.565Z,26.5
2023-03-07T11:02:19.950Z,28.9
2023-03-07T11:07:20.491Z,40.6
2023-03-07T11:12:21.140Z,25.5
2023-03-07T11:17:21.579Z,25.2
2023-03-07T11:22:22.085Z,29.7
2023-03-07T11:27:22.792Z,25.3
2023-03-07T11:32:23.292Z,26.3
2023-03-07T11:37:23.927Z,125.8
2023-03-07T11:42:24.685Z,220.9
2023-03-07T11:47:25.590Z,106.2
2023-03-07T11:52:27.112Z,42
2023-03-07T11:57:27.638Z,22.8
2023-03-07T12:02:28.149Z,24
2023-03-07T12:07:30.129Z,19.5
2023-03-07T12:12:32.244Z,24.2
2023-03-07T12:17:32.642Z,19.4
2023-03-07T12:22:33.282Z,18.3
2023-03-07T12:27:34.240Z,16.4
2023-03-07T12:32:34.899Z,16.4
2023-03-07T12:37:35.872Z,17.1
2023-03-07T12:42:36.571Z,24.3
2023-03-07T12:47:37.335Z,18.9
2023-03-07T12:52:37.715Z,17.5
2023-03-07T12:57:38.428Z,22.6
2023-03-07T13:02:40.727Z,19.6
2023-03-07T13:07:42.249Z,29.7
2023-03-07T13:12:42.609Z,20.1
2023-03-07T13:17:43.083Z,19.6
2023-03-07T13:22:43.506Z,27.2
2023-03-07T13:27:43.984Z,18.6
2023-03-07T13:32:44.400Z,18.9
2023-03-07T13:37:44.841Z,17.7
2023-03-07T13:42:45.297Z,18.9
2023-03-07T13:47:46.005Z,18.4
2023-03-07T13:52:46.360Z,16.4
2023-03-07T13:57:46.860Z,18.5
2023-03-07T14:02:47.358Z,17.3
2023-03-07T14:07:47.840Z,30.7
2023-03-07T14:12:48.828Z,20
2023-03-07T14:17:49.299Z,20.4
2023-03-07T14:22:49.751Z,20.3
2023-03-07T14:27:50.243Z,23.5
2023-03-07T14:32:50.729Z,23.1
2023-03-07T14:37:51.126Z,31.7
2023-03-07T14:42:51.551Z,34.7
2023-03-07T14:47:52.277Z,33.3
2023-03-07T14:52:52.821Z,24.3
2023-03-07T14:57:53.540Z,20.9
2023-03-07T15:02:54.057Z,19
2023-03-07T15:07:54.408Z,22.6
2023-03-07T15:12:55.122Z,32.4
2023-03-07T15:17:55.587Z,21.8
2023-03-07T15:22:56.351Z,21.6
2023-03-07T15:27:57.072Z,21.3
2023-03-07T15:32:57.520Z,23.7
2023-03-07T15:37:57.976Z,36.4
2023-03-07T15:42:59.032Z,77.3
2023-03-07T15:47:59.702Z,214.3
2023-03-07T15:53:00.143Z,259.1
2023-03-07T15:58:00.672Z,276.5
2023-03-07T16:03:01.199Z,140.9
2023-03-07T16:08:01.762Z,71.1
2023-03-07T16:13:02.701Z,36
2023-03-07T16:18:03.264Z,24.1
2023-03-07T16:23:03.839Z,24.2
2023-03-07T16:28:04.718Z,23.1
2023-03-07T16:33:05.176Z,23.2
2023-03-07T16:38:05.578Z,23.4
2023-03-07T16:43:06.084Z,21.1
2023-03-07T16:48:07.169Z,23.2
2023-03-07T16:53:07.770Z,21.9
2023-03-07T16:58:08.542Z,21.4
2023-03-07T17:03:11.485Z,22.4
2023-03-07T17:08:11.927Z,26
2023-03-07T17:13:12.522Z,26.5
2023-03-07T17:18:13.083Z,29.8
2023-03-07T17:23:13.596Z,30.4
2023-03-07T17:28:14.185Z,28.8
2023-03-07T17:33:14.595Z,29.2
2023-03-07T17:38:15.092Z,26.1
2023-03-07T17:43:15.820Z,27.4
2023-03-07T17:48:16.660Z,27.5
2023-03-07T17:53:17.191Z,29.4
2023-03-07T17:58:18.071Z,31.3
2023-03-07T18:03:18.549Z,31.3
2023-03-07T18:08:19.319Z,33
2023-03-07T18:13:20.084Z,28.2
2023-03-07T18:18:20.594Z,27.7
2023-03-07T18:23:21.097Z,27.5
2023-03-07T18:28:21.536Z,28.6
2023-03-07T18:33:22.148Z,30.2
2023-03-07T18:38:22.722Z,28.6
2023-03-07T18:43:23.547Z,28
2023-03-07T18:48:24.557Z,30.2
2023-03-07T18:53:25.073Z,29.3
2023-03-07T18:58:25.916Z,30.1
2023-03-07T19:03:27.066Z,28.6
2023-03-07T19:08:27.679Z,30.9
2023-03-07T19:13:28.424Z,29.2
2023-03-07T19:18:28.963Z,28.7
2023-03-07T19:23:29.456Z,29.3
2023-03-07T19:28:30.039Z,31.1
2023-03-07T19:33:30.569Z,29.4
2023-03-07T19:38:31.164Z,29.8
2023-03-07T19:43:31.741Z,31.9
2023-03-07T19:48:32.442Z,32.3
2023-03-07T19:53:32.956Z,29.2
2023-03-07T19:58:33.519Z,33.3
2023-03-07T20:03:33.987Z,34.8
2023-03-07T20:08:34.700Z,33
2023-03-07T20:13:35.340Z,33.7
2023-03-07T20:18:35.860Z,34.8
2023-03-07T20:23:36.342Z,34.4
2023-03-07T20:28:37.185Z,32.5
2023-03-07T20:33:37.775Z,32.1
2023-03-07T20:38:38.263Z,34.6
2023-03-07T20:43:38.796Z,34.9
2023-03-07T20:48:39.409Z,40.3
2023-03-07T20:53:39.902Z,39.1
2023-03-07T20:58:40.708Z,37.2
2023-03-07T21:03:41.207Z,40.4
2023-03-07T21:08:41.837Z,38.9
2023-03-07T21:13:42.864Z,43.6
2023-03-07T21:18:43.399Z,44.6
2023-03-07T21:23:43.978Z,39.2
2023-03-07T21:28:44.606Z,41.5
2023-03-07T21:33:45.022Z,39.2
2023-03-07T21:38:45.553Z,41.6
2023-03-07T21:43:46.205Z,44.7
2023-03-07T21:48:46.844Z,40.6
2023-03-07T21:53:47.287Z,45.5
2023-03-07T21:58:47.794Z,39.6
2023-03-07T22:03:48.344Z,38.1
2023-03-07T22:08:48.936Z,35.6
2023-03-07T22:13:49.600Z,35.6
2023-03-07T22:18:50.061Z,34.6
2023-03-07T22:23:50.542Z,34.2
2023-03-07T22:28:51.122Z,32.5
2023-03-07T22:33:51.618Z,31.3
2023-03-07T22:38:52.169Z,30.8
2023-03-07T22:43:53.050Z,33
2023-03-07T22:48:53.594Z,31.3
2023-03-07T22:53:54.097Z,31
2023-03-07T22:58:54.723Z,34.2
2023-03-07T23:03:55.219Z,32.4
2023-03-07T23:08:55.743Z,31.3
2023-03-07T23:13:56.698Z,31.6
2023-03-07T23:18:57.221Z,31.1
2023-03-07T23:24:00.313Z,32.3
2023-03-07T23:29:00.778Z,31.8
2023-03-07T23:34:01.193Z,30.2
2023-03-07T23:39:01.748Z,29.7
2023-03-07T23:44:02.373Z,32.3
2023-03-07T23:49:02.771Z,31.6
2023-03-07T23:54:03.195Z,30.1
2023-03-07T23:59:03.675Z,29.8
